sensor_id;sensor_type;location;lat;lon;timestamp;pressure;altitude;pressure_sealevel;temperature;humidity
68366;BME280;55283;51.466;5.478;2022-08-11T00:01:54;102062.63;;;27.22;31.78
68366;BME280;55283;51.466;5.478;2022-08-11T00:04:25;102061.41;;;27.23;32.00
68366;BME280;55283;51.466;5.478;2022-08-11T00:06:52;102059.38;;;27.24;32.20
68366;BME280;55283;51.466;5.478;2022-08-11T00:09:20;102060.16;;;27.24;32.30
68366;BME280;55283;51.466;5.478;2022-08-11T00:11:50;102057.31;;;27.24;32.10
68366;BME280;55283;51.466;5.478;2022-08-11T00:14:22;102064.56;;;27.25;31.89
68366;BME280;55283;51.466;5.478;2022-08-11T00:19:27;102062.63;;;27.22;31.92
68366;BME280;55283;51.466;5.478;2022-08-11T00:21:56;102062.50;;;27.26;31.73
68366;BME280;55283;51.466;5.478;2022-08-11T00:24:23;102061.28;;;27.27;31.78
68366;BME280;55283;51.466;5.478;2022-08-11T00:26:51;102058.44;;;27.27;31.92
68366;BME280;55283;51.466;5.478;2022-08-11T00:29:17;102055.53;;;27.18;32.00
68366;BME280;55283;51.466;5.478;2022-08-11T00:31:50;102060.94;;;27.25;31.74
68366;BME280;55283;51.466;5.478;2022-08-11T00:34:19;102069.53;;;27.21;32.41
68366;BME280;55283;51.466;5.478;2022-08-11T00:37:10;102030.09;;;27.05;31.89
68366;BME280;55283;51.466;5.478;2022-08-11T00:39:43;102051.31;;;27.22;31.90
68366;BME280;55283;51.466;5.478;2022-08-11T00:47:47;102058.22;;;27.21;32.06
68366;BME280;55283;51.466;5.478;2022-08-11T00:53:43;102061.19;;;27.18;31.79
68366;BME280;55283;51.466;5.478;2022-08-11T01:01:57;102069.53;;;27.21;31.78
68366;BME280;55283;51.466;5.478;2022-08-11T01:10:41;102046.22;;;27.17;31.84
68366;BME280;55283;51.466;5.478;2022-08-11T01:39:25;102056.31;;;27.18;32.08
68366;BME280;55283;51.466;5.478;2022-08-11T01:45:46;102057.22;;;27.15;31.93
68366;BME280;55283;51.466;5.478;2022-08-11T01:48:34;102071.38;;;27.15;32.17
68366;BME280;55283;51.466;5.478;2022-08-11T01:51:17;102069.00;;;27.14;32.16
68366;BME280;55283;51.466;5.478;2022-08-11T01:54:01;102066.63;;;27.12;31.84
68366;BME280;55283;51.466;5.478;2022-08-11T02:05:43;102066.50;;;27.16;31.77
68366;BME280;55283;51.466;5.478;2022-08-11T02:07:54;102056.25;;;27.09;31.77
68366;BME280;55283;51.466;5.478;2022-08-11T02:10:43;102069.00;;;27.14;31.81
68366;BME280;55283;51.466;5.478;2022-08-11T02:19:07;102071.97;;;27.10;31.90
68366;BME280;55283;51.466;5.478;2022-08-11T02:22:16;102067.41;;;27.13;31.78
68366;BME280;55283;51.466;5.478;2022-08-11T02:25:08;102065.38;;;27.13;31.79
68366;BME280;55283;51.466;5.478;2022-08-11T02:28:01;102045.03;;;27.05;31.80
68366;BME280;55283;51.466;5.478;2022-08-11T02:30:32;102059.06;;;27.09;31.71
68366;BME280;55283;51.466;5.478;2022-08-11T02:36:09;102060.63;;;27.10;31.80
68366;BME280;55283;51.466;5.478;2022-08-11T02:46:49;102053.06;;;27.07;32.04
68366;BME280;55283;51.466;5.478;2022-08-11T02:49:32;102057.16;;;27.06;31.87
68366;BME280;55283;51.466;5.478;2022-08-11T02:52:27;102022.13;;;26.91;31.91
68366;BME280;55283;51.466;5.478;2022-08-11T02:55:20;102054.00;;;27.04;31.75
68366;BME280;55283;51.466;5.478;2022-08-11T02:57:57;102048.00;;;27.02;31.85
68366;BME280;55283;51.466;5.478;2022-08-11T03:00:25;102044.59;;;27.07;31.68
68366;BME280;55283;51.466;5.478;2022-08-11T03:03:35;102045.69;;;27.09;31.69
68366;BME280;55283;51.466;5.478;2022-08-11T03:08:53;102049.91;;;27.05;31.76
68366;BME280;55283;51.466;5.478;2022-08-11T03:11:40;102044.59;;;27.07;32.01
68366;BME280;55283;51.466;5.478;2022-08-11T03:14:48;102041.88;;;27.03;31.73
68366;BME280;55283;51.466;5.478;2022-08-11T03:23:29;102041.75;;;27.07;32.00
68366;BME280;55283;51.466;5.478;2022-08-11T03:28:52;102043.00;;;27.06;31.82
68366;BME280;55283;51.466;5.478;2022-08-11T03:34:06;102049.13;;;27.04;31.78
68366;BME280;55283;51.466;5.478;2022-08-11T03:48:00;102058.19;;;26.99;31.79
68366;BME280;55283;51.466;5.478;2022-08-11T04:02:08;102042.13;;;26.96;31.75
68366;BME280;55283;51.466;5.478;2022-08-11T04:11:36;102046.41;;;27.01;31.83
68366;BME280;55283;51.466;5.478;2022-08-11T04:14:36;102034.75;;;26.99;31.94
68366;BME280;55283;51.466;5.478;2022-08-11T04:20:35;102041.81;;;26.94;32.12
68366;BME280;55283;51.466;5.478;2022-08-11T04:26:29;102034.91;;;26.95;32.02
68366;BME280;55283;51.466;5.478;2022-08-11T04:32:19;102044.16;;;26.96;32.02
68366;BME280;55283;51.466;5.478;2022-08-11T04:35:14;102039.00;;;26.94;31.73
68366;BME280;55283;51.466;5.478;2022-08-11T04:38:23;102002.50;;;26.74;32.21
68366;BME280;55283;51.466;5.478;2022-08-11T04:44:24;102034.44;;;26.97;31.84
68366;BME280;55283;51.466;5.478;2022-08-11T04:47:21;102041.34;;;26.96;31.96
68366;BME280;55283;51.466;5.478;2022-08-11T04:50:29;102044.97;;;26.96;32.11
68366;BME280;55283;51.466;5.478;2022-08-11T04:53:33;102049.84;;;26.96;32.16
68366;BME280;55283;51.466;5.478;2022-08-11T04:56:28;102069.97;;;26.98;31.81
68366;BME280;55283;51.466;5.478;2022-08-11T05:13:51;102014.13;;;26.76;31.93
68366;BME280;55283;51.466;5.478;2022-08-11T05:16:49;102048.47;;;27.00;31.96
68366;BME280;55283;51.466;5.478;2022-08-11T05:19:35;102049.38;;;26.97;32.21
68366;BME280;55283;51.466;5.478;2022-08-11T05:22:22;102049.69;;;26.99;31.65
68366;BME280;55283;51.466;5.478;2022-08-11T05:25:18;102047.34;;;26.98;32.04
68366;BME280;55283;51.466;5.478;2022-08-11T05:28:10;102050.16;;;26.98;32.11
68366;BME280;55283;51.466;5.478;2022-08-11T05:30:57;102050.97;;;26.98;32.09
68366;BME280;55283;51.466;5.478;2022-08-11T05:33:48;102051.53;;;26.93;32.18
68366;BME280;55283;51.466;5.478;2022-08-11T05:36:44;102058.44;;;26.92;32.42
68366;BME280;55283;51.466;5.478;2022-08-11T05:39:16;102063.53;;;26.97;32.13
68366;BME280;55283;51.466;5.478;2022-08-11T05:42:04;102059.66;;;27.04;32.13
68366;BME280;55283;51.466;5.478;2022-08-11T05:44:50;102054.31;;;27.06;32.11
68366;BME280;55283;51.466;5.478;2022-08-11T05:47:36;102053.50;;;27.05;32.26
68366;BME280;55283;51.466;5.478;2022-08-11T05:50:21;102054.63;;;27.08;32.66
68366;BME280;55283;51.466;5.478;2022-08-11T05:53:14;102065.72;;;27.15;32.46
68366;BME280;55283;51.466;5.478;2022-08-11T05:56:05;102057.16;;;27.06;32.38
68366;BME280;55283;51.466;5.478;2022-08-11T05:58:45;102059.06;;;27.09;32.57
68366;BME280;55283;51.466;5.478;2022-08-11T06:01:13;102062.53;;;27.13;32.51
68366;BME280;55283;51.466;5.478;2022-08-11T06:03:49;102061.63;;;27.16;32.62
68366;BME280;55283;51.466;5.478;2022-08-11T06:06:33;102064.59;;;27.13;32.47
68366;BME280;55283;51.466;5.478;2022-08-11T06:09:00;102055.44;;;27.08;33.03
68366;BME280;55283;51.466;5.478;2022-08-11T06:11:26;102065.03;;;27.11;32.94
68366;BME280;55283;51.466;5.478;2022-08-11T06:13:54;102059.38;;;27.11;33.38
68366;BME280;55283;51.466;5.478;2022-08-11T06:16:24;102046.88;;;26.99;33.19
68366;BME280;55283;51.466;5.478;2022-08-11T06:18:55;102066.28;;;27.10;32.53
68366;BME280;55283;51.466;5.478;2022-08-11T06:21:24;102063.75;;;27.03;31.39
68366;BME280;55283;51.466;5.478;2022-08-11T06:23:51;102052.59;;;26.86;30.67
68366;BME280;55283;51.466;5.478;2022-08-11T06:26:19;102058.09;;;26.68;30.45
68366;BME280;55283;51.466;5.478;2022-08-11T06:28:46;102054.72;;;26.48;30.42
68366;BME280;55283;51.466;5.478;2022-08-11T06:31:16;102053.38;;;26.39;30.29
68366;BME280;55283;51.466;5.478;2022-08-11T06:34:00;102060.94;;;26.30;30.69
68366;BME280;55283;51.466;5.478;2022-08-11T06:36:44;102058.13;;;26.17;31.02
68366;BME280;55283;51.466;5.478;2022-08-11T06:41:55;102056.44;;;26.19;30.75
68366;BME280;55283;51.466;5.478;2022-08-11T06:44:28;102061.19;;;26.10;30.88
68366;BME280;55283;51.466;5.478;2022-08-11T06:47:04;102061.41;;;26.03;31.13
68366;BME280;55283;51.466;5.478;2022-08-11T06:49:35;102064.94;;;26.07;30.85
68366;BME280;55283;51.466;5.478;2022-08-11T06:52:35;102066.72;;;26.01;31.05
68366;BME280;55283;51.466;5.478;2022-08-11T06:55:28;102072.09;;;25.95;31.26
68366;BME280;55283;51.466;5.478;2022-08-11T06:58:16;102072.03;;;25.99;31.36
68366;BME280;55283;51.466;5.478;2022-08-11T07:01:06;102072.03;;;25.99;31.39
68366;BME280;55283;51.466;5.478;2022-08-11T07:03:39;102072.91;;;25.95;31.30
68366;BME280;55283;51.466;5.478;2022-08-11T07:12:00;102070.00;;;25.99;31.57
68366;BME280;55283;51.466;5.478;2022-08-11T07:14:50;102065.94;;;26.00;31.41
68366;BME280;55283;51.466;5.478;2022-08-11T07:17:43;102044.31;;;25.81;31.78
68366;BME280;55283;51.466;5.478;2022-08-11T07:20:14;102078.59;;;26.08;31.41
68366;BME280;55283;51.466;5.478;2022-08-11T07:23:01;102067.50;;;26.14;31.73
68366;BME280;55283;51.466;5.478;2022-08-11T07:25:51;102061.53;;;26.25;31.30
68366;BME280;55283;51.466;5.478;2022-08-11T07:28:40;102068.06;;;26.34;31.21
68366;BME280;55283;51.466;5.478;2022-08-11T07:31:29;102065.91;;;26.38;31.76
68366;BME280;55283;51.466;5.478;2022-08-11T07:34:12;102063.31;;;26.31;31.45
68366;BME280;55283;51.466;5.478;2022-08-11T07:36:46;102073.38;;;26.45;31.16
68366;BME280;55283;51.466;5.478;2022-08-11T07:39:32;102052.81;;;26.32;31.47
68366;BME280;55283;51.466;5.478;2022-08-11T07:42:05;102065.91;;;26.51;31.11
68366;BME280;55283;51.466;5.478;2022-08-11T07:44:31;102063.59;;;26.59;31.09
68366;BME280;55283;51.466;5.478;2022-08-11T07:47:19;102067.59;;;26.61;31.13
68366;BME280;55283;51.466;5.478;2022-08-11T07:50:07;102069.28;;;26.72;30.97
68366;BME280;55283;51.466;5.478;2022-08-11T07:52:52;102067.09;;;26.76;30.91
68366;BME280;55283;51.466;5.478;2022-08-11T07:55:20;102059.94;;;26.84;30.75
68366;BME280;55283;51.466;5.478;2022-08-11T07:57:47;102065.69;;;26.93;30.66
68366;BME280;55283;51.466;5.478;2022-08-11T08:00:36;102066.22;;;27.01;30.47
68366;BME280;55283;51.466;5.478;2022-08-11T08:03:21;102069.25;;;27.06;30.19
68366;BME280;55283;51.466;5.478;2022-08-11T08:06:06;102074.00;;;27.09;30.07
68366;BME280;55283;51.466;5.478;2022-08-11T08:08:51;102072.94;;;27.16;29.17
68366;BME280;55283;51.466;5.478;2022-08-11T08:11:35;102066.69;;;27.21;29.43
68366;BME280;55283;51.466;5.478;2022-08-11T08:14:21;102074.63;;;27.26;29.23
68366;BME280;55283;51.466;5.478;2022-08-11T08:17:06;102076.41;;;27.33;29.27
68366;BME280;55283;51.466;5.478;2022-08-11T08:19:51;102065.72;;;27.37;29.06
68366;BME280;55283;51.466;5.478;2022-08-11T08:22:18;102060.75;;;27.41;28.92
68366;BME280;55283;51.466;5.478;2022-08-11T08:24:47;102065.28;;;27.39;28.83
68366;BME280;55283;51.466;5.478;2022-08-11T08:27:16;102058.09;;;27.47;28.39
68366;BME280;55283;51.466;5.478;2022-08-11T08:29:43;102061.91;;;27.53;28.43
68366;BME280;55283;51.466;5.478;2022-08-11T08:32:31;102060.00;;;27.50;28.66
68366;BME280;55283;51.466;5.478;2022-08-11T08:35:02;102070.47;;;27.62;28.69
68366;BME280;55283;51.466;5.478;2022-08-11T08:37:29;102066.88;;;27.71;28.19
68366;BME280;55283;51.466;5.478;2022-08-11T08:39:57;102071.03;;;27.79;28.32
68366;BME280;55283;51.466;5.478;2022-08-11T08:42:25;102070.31;;;27.88;27.89
68366;BME280;55283;51.466;5.478;2022-08-11T08:44:57;102066.22;;;27.89;28.40
68366;BME280;55283;51.466;5.478;2022-08-11T08:47:24;102061.84;;;27.97;28.05
68366;BME280;55283;51.466;5.478;2022-08-11T08:49:59;102060.91;;;28.00;28.25
68366;BME280;55283;51.466;5.478;2022-08-11T08:52:32;102061.56;;;28.04;28.05
68366;BME280;55283;51.466;5.478;2022-08-11T08:55:03;102069.69;;;27.93;27.93
68366;BME280;55283;51.466;5.478;2022-08-11T08:57:32;102060.91;;;28.00;28.25
68366;BME280;55283;51.466;5.478;2022-08-11T08:59:59;102049.91;;;28.02;27.64
68366;BME280;55283;51.466;5.478;2022-08-11T09:02:27;102055.25;;;28.00;28.03
68366;BME280;55283;51.466;5.478;2022-08-11T09:04:55;102057.47;;;28.05;27.71
68366;BME280;55283;51.466;5.478;2022-08-11T09:07:22;102046.31;;;28.11;27.62
68366;BME280;55283;51.466;5.478;2022-08-11T09:09:56;102047.56;;;28.10;27.42
68366;BME280;55283;51.466;5.478;2022-08-11T09:12:28;102047.88;;;28.12;27.44
68366;BME280;55283;51.466;5.478;2022-08-11T09:14:56;102051.06;;;28.14;27.80
68366;BME280;55283;51.466;5.478;2022-08-11T09:17:30;102046.19;;;28.24;27.73
68366;BME280;55283;51.466;5.478;2022-08-11T09:22:38;102042.97;;;28.43;28.12
68366;BME280;55283;51.466;5.478;2022-08-11T09:25:29;102048.81;;;28.49;27.72
68366;BME280;55283;51.466;5.478;2022-08-11T09:28:15;102047.06;;;28.52;27.61
68366;BME280;55283;51.466;5.478;2022-08-11T09:30:43;102045.34;;;28.54;27.79
68366;BME280;55283;51.466;5.478;2022-08-11T09:33:13;102041.09;;;28.59;28.01
68366;BME280;55283;51.466;5.478;2022-08-11T09:35:40;102030.06;;;28.61;28.39
68366;BME280;55283;51.466;5.478;2022-08-11T09:38:13;102031.34;;;28.60;28.07
68366;BME280;55283;51.466;5.478;2022-08-11T09:40:58;102034.31;;;28.65;28.13
68366;BME280;55283;51.466;5.478;2022-08-11T09:43:30;102032.41;;;28.62;28.08
68366;BME280;55283;51.466;5.478;2022-08-11T09:46:18;102021.06;;;28.62;28.07
68366;BME280;55283;51.466;5.478;2022-08-11T09:48:47;102033.69;;;28.61;28.57
68366;BME280;55283;51.466;5.478;2022-08-11T09:51:14;102032.91;;;28.61;29.08
68366;BME280;55283;51.466;5.478;2022-08-11T09:53:41;102028.94;;;28.58;28.13
68366;BME280;55283;51.466;5.478;2022-08-11T09:56:18;102028.94;;;28.49;28.86
68366;BME280;55283;51.466;5.478;2022-08-11T09:59:04;102026.44;;;28.51;29.00
68366;BME280;55283;51.466;5.478;2022-08-11T10:01:53;102031.00;;;28.58;28.98
68366;BME280;55283;51.466;5.478;2022-08-11T10:04:24;102022.34;;;28.61;28.92
68366;BME280;55283;51.466;5.478;2022-08-11T10:06:57;102017.94;;;28.70;28.98
68366;BME280;55283;51.466;5.478;2022-08-11T10:10:04;102016.22;;;28.63;28.79
68366;BME280;55283;51.466;5.478;2022-08-11T10:12:39;102016.38;;;28.69;28.72
68366;BME280;55283;51.466;5.478;2022-08-11T10:15:11;102015.25;;;28.75;28.47
68366;BME280;55283;51.466;5.478;2022-08-11T10:18:03;102012.88;;;28.74;28.85
68366;BME280;55283;51.466;5.478;2022-08-11T10:20:50;102010.03;;;28.64;29.41
68366;BME280;55283;51.466;5.478;2022-08-11T10:23:18;102003.91;;;28.66;29.08
68366;BME280;55283;51.466;5.478;2022-08-11T10:26:03;102002.03;;;28.72;28.73
68366;BME280;55283;51.466;5.478;2022-08-11T10:28:49;102000.59;;;28.68;29.16
68366;BME280;55283;51.466;5.478;2022-08-11T10:31:14;102011.47;;;28.69;28.57
68366;BME280;55283;51.466;5.478;2022-08-11T10:34:00;102012.09;;;28.73;29.12
68366;BME280;55283;51.466;5.478;2022-08-11T10:36:32;102004.38;;;28.74;29.20
68366;BME280;55283;51.466;5.478;2022-08-11T10:39:01;102000.91;;;28.79;29.12
68366;BME280;55283;51.466;5.478;2022-08-11T10:41:28;101998.06;;;28.79;29.00
68366;BME280;55283;51.466;5.478;2022-08-11T10:44:13;101999.97;;;28.82;29.19
68366;BME280;55283;51.466;5.478;2022-08-11T10:46:38;102008.78;;;28.84;28.88
68366;BME280;55283;51.466;5.478;2022-08-11T10:49:26;101995.38;;;28.84;29.12
68366;BME280;55283;51.466;5.478;2022-08-11T10:51:54;101995.56;;;28.81;28.77
68366;BME280;55283;51.466;5.478;2022-08-11T10:54:39;101996.16;;;28.85;28.96
68366;BME280;55283;51.466;5.478;2022-08-11T10:57:24;101990.50;;;28.85;29.07
68366;BME280;55283;51.466;5.478;2022-08-11T11:00:10;101988.94;;;28.84;28.67
68366;BME280;55283;51.466;5.478;2022-08-11T11:02:40;101970.03;;;28.72;28.88
68366;BME280;55283;51.466;5.478;2022-08-11T11:07:46;101984.81;;;28.85;28.32
68366;BME280;55283;51.466;5.478;2022-08-11T11:10:14;101990.81;;;28.87;28.42
68366;BME280;55283;51.466;5.478;2022-08-11T11:12:54;101981.97;;;28.85;28.26
68366;BME280;55283;51.466;5.478;2022-08-11T11:15:44;101978.50;;;28.90;28.72
68366;BME280;55283;51.466;5.478;2022-08-11T11:18:36;101973.78;;;28.87;28.05
68366;BME280;55283;51.466;5.478;2022-08-11T11:24:15;101969.06;;;28.93;28.11
68366;BME280;55283;51.466;5.478;2022-08-11T11:26:38;101975.34;;;28.88;28.61
68366;BME280;55283;51.466;5.478;2022-08-11T11:37:37;101966.22;;;28.93;27.90
68366;BME280;55283;51.466;5.478;2022-08-11T11:40:12;101960.53;;;28.93;28.49
68366;BME280;55283;51.466;5.478;2022-08-11T11:42:40;101956.59;;;28.91;28.06
68366;BME280;55283;51.466;5.478;2022-08-11T11:45:10;101945.06;;;28.94;27.86
68366;BME280;55283;51.466;5.478;2022-08-11T11:47:38;101958.31;;;28.97;27.93
68366;BME280;55283;51.466;5.478;2022-08-11T11:50:06;101959.59;;;28.96;27.60
68366;BME280;55283;51.466;5.478;2022-08-11T11:52:32;101957.22;;;28.95;27.74
68366;BME280;55283;51.466;5.478;2022-08-11T11:54:58;101958.97;;;28.92;28.16
68366;BME280;55283;51.466;5.478;2022-08-11T11:57:25;101951.06;;;28.96;28.03
68366;BME280;55283;51.466;5.478;2022-08-11T12:00:10;101946.34;;;28.93;28.25
68366;BME280;55283;51.466;5.478;2022-08-11T12:02:57;101945.56;;;28.93;28.05
68366;BME280;55283;51.466;5.478;2022-08-11T12:05:23;101951.53;;;28.95;28.34
68366;BME280;55283;51.466;5.478;2022-08-11T12:07:50;101946.94;;;28.97;28.12
68366;BME280;55283;51.466;5.478;2022-08-11T12:10:36;101939.41;;;28.94;28.26
68366;BME280;55283;51.466;5.478;2022-08-11T12:13:02;101939.41;;;28.94;28.08
68366;BME280;55283;51.466;5.478;2022-08-11T12:15:51;101935.59;;;28.97;28.20
68366;BME280;55283;51.466;5.478;2022-08-11T12:18:17;101934.22;;;29.02;27.89
68366;BME280;55283;51.466;5.478;2022-08-11T12:20:46;101929.81;;;29.01;27.86
68366;BME280;55283;51.466;5.478;2022-08-11T12:23:12;101932.16;;;29.02;28.27
68366;BME280;55283;51.466;5.478;2022-08-11T12:26:00;101923.97;;;28.95;28.44
68366;BME280;55283;51.466;5.478;2022-08-11T12:28:55;101926.97;;;29.01;28.27
68366;BME280;55283;51.466;5.478;2022-08-11T12:31:22;101920.16;;;28.98;28.22
68366;BME280;55283;51.466;5.478;2022-08-11T12:33:50;101911.66;;;28.98;28.01
68366;BME280;55283;51.466;5.478;2022-08-11T12:36:15;101910.06;;;28.97;28.21
68366;BME280;55283;51.466;5.478;2022-08-11T12:38:48;101909.78;;;28.95;28.34
68366;BME280;55283;51.466;5.478;2022-08-11T12:41:14;101875.59;;;28.71;28.04
68366;BME280;55283;51.466;5.478;2022-08-11T12:44:01;101903.31;;;28.85;28.23
68366;BME280;55283;51.466;5.478;2022-08-11T12:46:46;101893.41;;;28.81;28.54
68366;BME280;55283;51.466;5.478;2022-08-11T12:49:15;101905.69;;;28.87;28.49
68366;BME280;55283;51.466;5.478;2022-08-11T12:52:08;101898.41;;;28.86;28.55
68366;BME280;55283;51.466;5.478;2022-08-11T12:57:13;101903.78;;;28.84;28.35
68366;BME280;55283;51.466;5.478;2022-08-11T12:59:59;101894.50;;;28.83;28.48
68366;BME280;55283;51.466;5.478;2022-08-11T13:02:46;101891.34;;;28.81;28.50
68366;BME280;55283;51.466;5.478;2022-08-11T13:05:31;101894.97;;;28.82;28.70
68366;BME280;55283;51.466;5.478;2022-08-11T13:07:59;101870.84;;;28.77;28.40
68366;BME280;55283;51.466;5.478;2022-08-11T13:10:26;101878.91;;;28.79;28.72
68366;BME280;55283;51.466;5.478;2022-08-11T13:13:12;101872.59;;;28.75;28.69
68366;BME280;55283;51.466;5.478;2022-08-11T13:15:39;101863.16;;;28.69;28.90
68366;BME280;55283;51.466;5.478;2022-08-11T13:18:07;101858.44;;;28.75;28.40
68366;BME280;55283;51.466;5.478;2022-08-11T13:20:36;101856.38;;;28.75;28.79
68366;BME280;55283;51.466;5.478;2022-08-11T13:23:05;101869.44;;;28.73;28.62
68366;BME280;55283;51.466;5.478;2022-08-11T13:25:34;101859.84;;;28.70;28.62
68366;BME280;55283;51.466;5.478;2022-08-11T13:28:03;101854.66;;;28.69;28.58
68366;BME280;55283;51.466;5.478;2022-08-11T13:30:30;101849.75;;;28.69;28.76
68366;BME280;55283;51.466;5.478;2022-08-11T13:33:16;101855.91;;;28.68;28.75
68366;BME280;55283;51.466;5.478;2022-08-11T13:35:47;101844.56;;;28.68;28.53
68366;BME280;55283;51.466;5.478;2022-08-11T13:38:15;101851.97;;;28.65;28.76
68366;BME280;55283;51.466;5.478;2022-08-11T13:40:43;101842.66;;;28.64;28.46
68366;BME280;55283;51.466;5.478;2022-08-11T13:43:10;101851.97;;;28.65;28.50
68366;BME280;55283;51.466;5.478;2022-08-11T13:45:37;101845.50;;;28.64;28.77
68366;BME280;55283;51.466;5.478;2022-08-11T13:48:07;101844.13;;;28.60;28.56
68366;BME280;55283;51.466;5.478;2022-08-11T13:50:34;101848.97;;;28.59;28.85
68366;BME280;55283;51.466;5.478;2022-08-11T13:53:23;101837.03;;;28.55;28.90
68366;BME280;55283;51.466;5.478;2022-08-11T13:55:52;101837.97;;;28.52;28.68
68366;BME280;55283;51.466;5.478;2022-08-11T13:58:21;101836.41;;;28.51;28.69
68366;BME280;55283;51.466;5.478;2022-08-11T14:00:49;101843.97;;;28.54;28.64
68366;BME280;55283;51.466;5.478;2022-08-11T14:03:27;101845.69;;;28.52;28.69
68366;BME280;55283;51.466;5.478;2022-08-11T14:05:58;101823.97;;;28.49;28.84
68366;BME280;55283;51.466;5.478;2022-08-11T14:08:34;101832.47;;;28.49;29.16
68366;BME280;55283;51.466;5.478;2022-08-11T14:11:03;101831.19;;;28.50;28.96
68366;BME280;55283;51.466;5.478;2022-08-11T14:13:49;101828.03;;;28.48;29.24
68366;BME280;55283;51.466;5.478;2022-08-11T14:16:23;101834.22;;;28.46;29.20
68366;BME280;55283;51.466;5.478;2022-08-11T14:18:53;101826.16;;;28.45;28.79
68366;BME280;55283;51.466;5.478;2022-08-11T14:21:20;101826.66;;;28.43;29.14
68366;BME280;55283;51.466;5.478;2022-08-11T14:24:06;101815.78;;;28.41;28.91
68366;BME280;55283;51.466;5.478;2022-08-11T14:26:34;101824.28;;;28.41;28.71
68366;BME280;55283;51.466;5.478;2022-08-11T14:29:16;101812.75;;;28.45;28.74
68366;BME280;55283;51.466;5.478;2022-08-11T14:31:53;101823.50;;;28.41;28.85
68366;BME280;55283;51.466;5.478;2022-08-11T14:34:22;101817.38;;;28.42;28.95
68366;BME280;55283;51.466;5.478;2022-08-11T14:36:52;101813.25;;;28.43;29.01
68366;BME280;55283;51.466;5.478;2022-08-11T14:39:22;101807.25;;;28.41;28.77
68366;BME280;55283;51.466;5.478;2022-08-11T14:41:56;101805.53;;;28.44;28.92
68366;BME280;55283;51.466;5.478;2022-08-11T14:44:43;101808.34;;;28.35;29.00
68366;BME280;55283;51.466;5.478;2022-08-11T14:47:52;101822.84;;;28.37;28.96
68366;BME280;55283;51.466;5.478;2022-08-11T14:50:22;101807.09;;;28.36;28.70
68366;BME280;55283;51.466;5.478;2022-08-11T14:52:49;101796.88;;;28.29;29.09
68366;BME280;55283;51.466;5.478;2022-08-11T14:55:17;101793.25;;;28.29;28.91
68366;BME280;55283;51.466;5.478;2022-08-11T14:58:05;101798.44;;;28.30;28.98
68366;BME280;55283;51.466;5.478;2022-08-11T15:00:35;101799.88;;;28.26;28.80
68366;BME280;55283;51.466;5.478;2022-08-11T15:03:03;101801.25;;;28.30;28.71
68366;BME280;55283;51.466;5.478;2022-08-11T15:05:35;101793.84;;;28.33;28.47
68366;BME280;55283;51.466;5.478;2022-08-11T15:08:04;101786.44;;;28.35;27.97
68366;BME280;55283;51.466;5.478;2022-08-11T15:10:31;101785.06;;;28.31;27.89
68366;BME280;55283;51.466;5.478;2022-08-11T15:12:57;101782.22;;;28.31;28.31
68366;BME280;55283;51.466;5.478;2022-08-11T15:15:24;101783.16;;;28.28;28.60
68366;BME280;55283;51.466;5.478;2022-08-11T15:18:12;101778.56;;;28.30;28.58
68366;BME280;55283;51.466;5.478;2022-08-11T15:20:42;101780.63;;;28.30;28.67
68366;BME280;55283;51.466;5.478;2022-08-11T15:23:35;101774.78;;;28.33;28.45
68366;BME280;55283;51.466;5.478;2022-08-11T15:26:29;101766.00;;;28.31;28.77
68366;BME280;55283;51.466;5.478;2022-08-11T15:29:19;101756.25;;;28.23;28.75
68366;BME280;55283;51.466;5.478;2022-08-11T15:32:03;101763.44;;;28.33;28.18
68366;BME280;55283;51.466;5.478;2022-08-11T15:35:00;101772.75;;;28.34;28.70
68366;BME280;55283;51.466;5.478;2022-08-11T15:37:46;101770.53;;;28.38;29.98
68366;BME280;55283;51.466;5.478;2022-08-11T15:40:28;101769.25;;;28.39;29.77
68366;BME280;55283;51.466;5.478;2022-08-11T15:43:47;101767.22;;;28.39;30.51
68366;BME280;55283;51.466;5.478;2022-08-11T15:51:59;101759.06;;;28.41;30.40
68366;BME280;55283;51.466;5.478;2022-08-11T15:54:28;101749.59;;;28.45;30.01
68366;BME280;55283;51.466;5.478;2022-08-11T15:56:57;101757.16;;;28.48;29.82
68366;BME280;55283;51.466;5.478;2022-08-11T15:59:26;101751.97;;;28.46;29.38
68366;BME280;55283;51.466;5.478;2022-08-11T16:02:14;101754.63;;;28.50;29.40
68366;BME280;55283;51.466;5.478;2022-08-11T16:04:59;101748.50;;;28.51;29.67
68366;BME280;55283;51.466;5.478;2022-08-11T16:07:32;101747.69;;;28.51;29.46
68366;BME280;55283;51.466;5.478;2022-08-11T16:10:09;101749.91;;;28.47;29.43
68366;BME280;55283;51.466;5.478;2022-08-11T16:12:45;101740.13;;;28.38;29.43
68366;BME280;55283;51.466;5.478;2022-08-11T16:15:53;101736.50;;;28.38;29.56
68366;BME280;55283;51.466;5.478;2022-08-11T16:18:52;101736.84;;;28.40;29.77
68366;BME280;55283;51.466;5.478;2022-08-11T16:21:26;101737.47;;;28.44;29.61
68366;BME280;55283;51.466;5.478;2022-08-11T16:23:55;101741.22;;;28.50;30.14
68366;BME280;55283;51.466;5.478;2022-08-11T16:26:23;101734.31;;;28.42;29.46
68366;BME280;55283;51.466;5.478;2022-08-11T16:28:52;101736.50;;;28.38;29.57
68366;BME280;55283;51.466;5.478;2022-08-11T16:31:23;101736.50;;;28.38;29.54
68366;BME280;55283;51.466;5.478;2022-08-11T16:33:50;101731.19;;;28.31;29.55
68366;BME280;55283;51.466;5.478;2022-08-11T16:36:18;101725.19;;;28.29;29.54
68366;BME280;55283;51.466;5.478;2022-08-11T16:39:04;101712.44;;;28.24;29.62
68366;BME280;55283;51.466;5.478;2022-08-11T16:41:33;101719.84;;;28.31;29.46
68366;BME280;55283;51.466;5.478;2022-08-11T16:44:21;101719.97;;;28.36;29.23
68366;BME280;55283;51.466;5.478;2022-08-11T16:47:13;101726.91;;;28.35;29.17
68366;BME280;55283;51.466;5.478;2022-08-11T16:49:50;101718.91;;;28.34;29.55